Terminal Aerodrome Forecast
Issued by NWS

Home | Current Version | Previous Version | Text Only | Print | Product List | Glossary On
Versions: 1 2 3 4 5 6 7 8 9 10 11 12 13 14 15 16 17 18 19 20 21 22 23
667
FTUS43 KTOP 261455 AAA
TAFMHK
TAF AMD
KMHK 261455Z 2615/2712 09011KT P6SM BKN035
     FM261800 15012G20KT P6SM SCT030
     FM262100 16012G21KT P6SM VCTS BKN035CB
     FM270900 13008KT 6SM BR BKN025=

USA.gov is the U.S. government's official web portal to all federal, state and local government web resources and services.